createdAt,value
2022-11-12T00:00:26.952Z,53.60
2022-11-12T00:02:53.506Z,53.30
2022-11-12T00:05:20.062Z,53.20
2022-11-12T00:07:46.626Z,53.20
2022-11-12T00:10:13.180Z,53.20
2022-11-12T00:12:39.752Z,53.40
2022-11-12T00:15:06.565Z,53.10
2022-11-12T00:17:33.134Z,52.90
2022-11-12T00:19:59.774Z,52.80
2022-11-12T00:22:26.336Z,52.80
2022-11-12T00:24:52.907Z,52.90
2022-11-12T00:27:19.516Z,52.80
2022-11-12T00:29:46.320Z,52.90
2022-11-12T00:32:13.050Z,53.00
2022-11-12T00:34:39.611Z,53.00
2022-11-12T00:37:06.293Z,53.00
2022-11-12T00:39:32.856Z,53.00
2022-11-12T00:41:59.426Z,53.00
2022-11-12T00:44:26.061Z,53.00
2022-11-12T00:46:52.621Z,53.00
2022-11-12T00:49:19.207Z,53.00
2022-11-12T00:51:45.805Z,53.10
2022-11-12T00:54:12.379Z,53.00
2022-11-12T00:56:38.940Z,53.10
2022-11-12T00:59:05.669Z,53.20
2022-11-12T01:01:32.300Z,53.10
2022-11-12T01:03:59.501Z,53.10
2022-11-12T01:06:28.993Z,53.20
2022-11-12T01:08:55.607Z,53.20
2022-11-12T01:11:26.298Z,53.20
2022-11-12T01:13:59.635Z,53.30
2022-11-12T01:16:27.088Z,53.20
2022-11-12T01:18:57.541Z,53.20
2022-11-12T01:21:24.676Z,53.20
2022-11-12T01:23:51.252Z,53.20
2022-11-12T01:26:18.298Z,53.20
2022-11-12T01:28:48.260Z,53.30
2022-11-12T01:31:21.874Z,53.20
2022-11-12T01:33:49.012Z,53.20
2022-11-12T01:36:16.054Z,53.30
2022-11-12T01:38:42.940Z,53.90
2022-11-12T01:41:10.462Z,53.40
2022-11-12T01:43:37.011Z,53.30
2022-11-12T01:46:06.009Z,53.40
2022-11-12T01:48:37.837Z,53.20
2022-11-12T01:51:04.458Z,53.40
2022-11-12T01:53:32.161Z,53.40
2022-11-12T01:55:58.790Z,53.40
2022-11-12T01:58:26.208Z,53.40
2022-11-12T02:00:52.950Z,53.40
2022-11-12T02:03:19.963Z,53.40
2022-11-12T02:05:47.029Z,53.40
2022-11-12T02:08:13.615Z,53.40
2022-11-12T02:10:40.214Z,53.50
2022-11-12T02:13:25.622Z,53.40
2022-11-12T02:16:23.349Z,53.40
2022-11-12T02:18:49.884Z,53.40
2022-11-12T02:21:20.596Z,53.50
2022-11-12T02:23:47.166Z,53.50
2022-11-12T02:26:13.706Z,53.40
2022-11-12T02:28:40.258Z,53.40
2022-11-12T02:31:06.834Z,53.40
2022-11-12T02:33:33.409Z,53.30
2022-11-12T02:36:00.132Z,53.40
2022-11-12T02:38:27.109Z,53.40
2022-11-12T02:40:53.948Z,53.40
2022-11-12T02:43:20.973Z,53.40
2022-11-12T02:45:47.537Z,53.40
2022-11-12T02:48:19.077Z,53.30
2022-11-12T02:50:47.075Z,53.40
2022-11-12T02:53:13.756Z,53.40
2022-11-12T02:55:40.350Z,53.30
2022-11-12T02:58:06.914Z,53.30
2022-11-12T03:00:33.506Z,53.40
2022-11-12T03:03:03.185Z,53.40
2022-11-12T03:05:30.312Z,53.40
2022-11-12T03:08:00.502Z,53.30
2022-11-12T03:10:27.155Z,53.40
2022-11-12T03:12:54.022Z,53.40
2022-11-12T03:15:20.629Z,53.30
2022-11-12T03:17:47.227Z,53.20
2022-11-12T03:20:13.887Z,54.00
2022-11-12T03:22:40.506Z,53.40
2022-11-12T03:25:07.364Z,53.30
2022-11-12T03:27:34.072Z,53.40
2022-11-12T03:30:00.664Z,53.40
2022-11-12T03:32:27.250Z,53.30
2022-11-12T03:34:55.561Z,53.30
2022-11-12T03:37:22.385Z,53.20
2022-11-12T03:39:49.042Z,53.10
2022-11-12T03:42:15.612Z,53.30
2022-11-12T03:44:42.209Z,53.20
2022-11-12T03:47:08.799Z,53.40
2022-11-12T03:49:35.364Z,53.20
2022-11-12T03:52:01.956Z,53.20
2022-11-12T03:54:28.797Z,53.10
2022-11-12T03:56:55.355Z,53.20
2022-11-12T03:59:21.940Z,53.10
2022-11-12T04:01:48.575Z,53.20
2022-11-12T04:04:15.217Z,53.10
2022-11-12T04:07:00.632Z,53.20
2022-11-12T04:09:27.269Z,53.20
2022-11-12T04:11:53.847Z,53.10
2022-11-12T04:14:21.034Z,52.90
2022-11-12T04:17:06.336Z,52.80
2022-11-12T04:19:51.763Z,52.70
2022-11-12T04:22:18.320Z,52.30
2022-11-12T04:25:03.675Z,52.20
2022-11-12T04:27:31.170Z,52.30
2022-11-12T04:30:16.079Z,52.50
2022-11-12T04:32:49.534Z,52.30
2022-11-12T04:35:16.215Z,52.30
2022-11-12T04:37:45.818Z,52.20
2022-11-12T04:40:35.197Z,52.80
2022-11-12T04:43:20.567Z,52.20
2022-11-12T04:45:48.221Z,52.30
2022-11-12T04:48:14.807Z,52.40
2022-11-12T04:50:41.728Z,52.30
2022-11-12T04:53:08.319Z,52.40
2022-11-12T04:55:34.885Z,52.30
2022-11-12T04:58:01.474Z,52.40
2022-11-12T05:00:28.144Z,52.30
2022-11-12T05:02:54.758Z,52.40
2022-11-12T05:05:21.473Z,52.40
2022-11-12T05:07:48.076Z,52.30
2022-11-12T05:10:14.791Z,52.30
2022-11-12T05:12:41.602Z,52.30
2022-11-12T05:15:08.649Z,52.40
2022-11-12T05:17:35.247Z,52.60
2022-11-12T05:20:01.901Z,52.40
2022-11-12T05:22:43.411Z,52.50
2022-11-12T05:25:12.445Z,52.50
2022-11-12T05:27:39.086Z,52.50
2022-11-12T05:30:06.004Z,52.40
2022-11-12T05:32:32.637Z,52.50
2022-11-12T05:34:59.238Z,52.40
2022-11-12T05:37:25.869Z,52.40
2022-11-12T05:39:52.463Z,52.50
2022-11-12T05:42:19.083Z,52.50
2022-11-12T05:44:45.686Z,53.00
2022-11-12T05:47:12.283Z,52.40
2022-11-12T05:49:38.899Z,52.40
2022-11-12T05:52:05.496Z,52.50
2022-11-12T05:54:32.084Z,52.50
2022-11-12T05:56:58.660Z,52.50
2022-11-12T05:59:25.252Z,52.50
2022-11-12T06:01:52.115Z,52.60
2022-11-12T06:04:18.693Z,52.50
2022-11-12T06:06:45.301Z,52.50
2022-11-12T06:09:11.926Z,52.40
2022-11-12T06:11:38.525Z,52.50
2022-11-12T06:14:05.144Z,52.40
2022-11-12T06:16:31.873Z,52.40
2022-11-12T06:18:58.482Z,52.40
2022-11-12T06:21:27.256Z,52.40
2022-11-12T06:23:57.438Z,52.40
2022-11-12T06:26:24.802Z,52.60
2022-11-12T06:28:51.547Z,52.60
2022-11-12T06:31:18.344Z,52.40
2022-11-12T06:33:45.262Z,52.40
2022-11-12T06:36:12.573Z,52.80
2022-11-12T06:38:40.005Z,52.70
2022-11-12T06:41:06.885Z,52.70
2022-11-12T06:43:33.547Z,52.70
2022-11-12T06:46:01.074Z,52.70
2022-11-12T06:48:28.336Z,52.70
2022-11-12T06:50:55.442Z,52.80
2022-11-12T06:53:22.140Z,52.80
2022-11-12T06:55:48.788Z,52.60
2022-11-12T06:58:15.393Z,52.30
2022-11-12T07:00:42.031Z,52.60
2022-11-12T07:03:08.902Z,52.70
2022-11-12T07:05:37.258Z,52.80
2022-11-12T07:08:04.464Z,53.00
2022-11-12T07:10:31.104Z,53.10
2022-11-12T07:12:57.756Z,52.80
2022-11-12T07:15:24.412Z,52.60
2022-11-12T07:17:51.031Z,52.70
2022-11-12T07:20:17.696Z,52.50
2022-11-12T07:22:44.319Z,52.90
2022-11-12T07:25:10.937Z,52.80
2022-11-12T07:27:37.578Z,52.80
2022-11-12T07:30:04.373Z,52.80
2022-11-12T07:32:30.973Z,53.00
2022-11-12T07:34:57.630Z,53.00
2022-11-12T07:37:24.241Z,52.90
2022-11-12T07:39:50.871Z,53.50
2022-11-12T07:42:17.508Z,53.00
2022-11-12T07:44:44.106Z,53.00
2022-11-12T07:47:10.706Z,53.10
2022-11-12T07:49:37.301Z,53.10
2022-11-12T07:52:04.235Z,53.20
2022-11-12T07:54:30.877Z,53.10
2022-11-12T07:56:57.600Z,53.10
2022-11-12T07:59:24.260Z,53.10
2022-11-12T08:01:50.923Z,53.10
2022-11-12T08:04:17.569Z,53.00
2022-11-12T08:06:44.264Z,53.10
2022-11-12T08:09:11.119Z,53.10
2022-11-12T08:11:37.840Z,52.80
2022-11-12T08:14:04.510Z,53.00
2022-11-12T08:16:31.310Z,53.00
2022-11-12T08:18:58.033Z,53.10
2022-11-12T08:21:24.646Z,53.00
2022-11-12T08:23:51.269Z,53.00
2022-11-12T08:26:18.134Z,52.80
2022-11-12T08:28:44.786Z,53.10
2022-11-12T08:31:18.586Z,52.20
2022-11-12T08:33:45.244Z,52.80
2022-11-12T08:36:12.900Z,53.00
2022-11-12T08:38:39.838Z,53.30
2022-11-12T08:41:07.310Z,53.10
2022-11-12T08:43:34.018Z,53.30
2022-11-12T08:46:00.912Z,53.20
2022-11-12T08:48:28.032Z,53.20
2022-11-12T08:50:54.934Z,53.20
2022-11-12T08:53:21.774Z,53.10
2022-11-12T08:55:48.457Z,53.10
2022-11-12T08:58:15.056Z,52.20
2022-11-12T09:00:42.205Z,52.30
2022-11-12T09:03:13.051Z,52.30
2022-11-12T09:05:39.724Z,52.20
2022-11-12T09:08:08.551Z,52.00
2022-11-12T09:10:35.384Z,52.10
2022-11-12T09:13:02.036Z,52.00
2022-11-12T09:15:38.977Z,51.90
2022-11-12T09:18:06.861Z,52.00
2022-11-12T09:20:33.470Z,52.30
2022-11-12T09:23:07.991Z,52.20
2022-11-12T09:25:34.764Z,52.50
2022-11-12T09:28:11.132Z,52.50
2022-11-12T09:30:38.038Z,52.70
2022-11-12T09:33:04.703Z,52.70
2022-11-12T09:35:31.357Z,52.60
2022-11-12T09:37:58.731Z,52.60
2022-11-12T09:40:32.390Z,53.30
2022-11-12T09:42:58.992Z,52.00
2022-11-12T09:45:29.918Z,52.50
2022-11-12T09:48:00.039Z,52.70
2022-11-12T09:50:30.860Z,51.70
2022-11-12T09:53:17.141Z,50.30
2022-11-12T09:55:44.298Z,52.30
2022-11-12T09:58:14.527Z,52.50
2022-11-12T10:00:44.964Z,52.60
2022-11-12T10:03:18.384Z,52.60
2022-11-12T10:05:48.613Z,52.50
2022-11-12T10:08:15.328Z,52.60
2022-11-12T10:10:44.384Z,52.60
2022-11-12T10:13:29.928Z,52.60
2022-11-12T10:16:25.369Z,52.60
2022-11-12T10:18:58.129Z,52.70
2022-11-12T10:21:30.680Z,52.80
2022-11-12T10:23:57.260Z,52.80
2022-11-12T10:26:29.311Z,52.90
2022-11-12T10:28:59.358Z,52.80
2022-11-12T10:31:25.940Z,52.90
2022-11-12T10:33:54.569Z,52.90
2022-11-12T10:36:29.823Z,53.00
2022-11-12T10:38:56.517Z,53.00
2022-11-12T10:41:30.971Z,53.00
2022-11-12T10:44:06.880Z,53.00
2022-11-12T10:46:36.795Z,53.00
2022-11-12T10:49:04.645Z,53.00
2022-11-12T10:51:35.115Z,53.10
2022-11-12T10:54:20.039Z,53.10
2022-11-12T10:56:47.164Z,53.20
2022-11-12T10:59:13.726Z,53.20
2022-11-12T11:01:45.359Z,53.30
2022-11-12T11:04:16.237Z,53.40
2022-11-12T11:06:42.990Z,53.40
2022-11-12T11:09:12.417Z,53.40
2022-11-12T11:11:47.929Z,53.40
2022-11-12T11:14:23.351Z,53.40
2022-11-12T11:16:51.001Z,53.40
2022-11-12T11:19:17.572Z,53.70
2022-11-12T11:21:47.278Z,53.60
2022-11-12T11:24:26.800Z,53.70
2022-11-12T11:26:53.376Z,53.80
2022-11-12T11:29:35.935Z,53.70
2022-11-12T11:32:17.782Z,53.70
2022-11-12T11:34:47.485Z,53.80
2022-11-12T11:37:34.642Z,53.80
2022-11-12T11:40:19.455Z,54.40
2022-11-12T11:42:50.366Z,53.80
2022-11-12T11:45:17.242Z,53.90
2022-11-12T11:48:01.120Z,53.90
2022-11-12T11:50:29.436Z,54.00
2022-11-12T11:53:01.687Z,54.00
2022-11-12T11:55:31.509Z,54.10
2022-11-12T11:58:17.017Z,54.10
2022-11-12T12:00:47.677Z,54.00
2022-11-12T12:03:21.954Z,54.00
2022-11-12T12:05:57.374Z,54.00
2022-11-12T12:08:27.126Z,53.50
2022-11-12T12:11:08.043Z,53.20
2022-11-12T12:13:39.712Z,53.20
2022-11-12T12:16:15.636Z,53.10
2022-11-12T12:18:52.282Z,53.10
2022-11-12T12:21:19.701Z,53.20
2022-11-12T12:23:56.523Z,53.30
2022-11-12T12:26:42.381Z,53.40
2022-11-12T12:29:27.748Z,53.50
2022-11-12T12:32:00.750Z,53.50
2022-11-12T12:34:34.666Z,53.60
2022-11-12T12:37:21.129Z,53.70
2022-11-12T12:40:06.317Z,53.70
2022-11-12T12:42:38.106Z,53.70
2022-11-12T12:45:23.439Z,53.60
2022-11-12T12:47:50.072Z,53.70
2022-11-12T12:50:16.695Z,53.80
2022-11-12T12:53:01.469Z,53.20
2022-11-12T12:55:35.630Z,54.30
2022-11-12T12:58:05.283Z,54.00
2022-11-12T13:00:36.951Z,54.20
2022-11-12T13:03:03.568Z,54.20
2022-11-12T13:05:34.141Z,54.30
2022-11-12T13:08:05.176Z,54.60
2022-11-12T13:11:07.384Z,54.80
2022-11-12T13:13:34.875Z,54.80
2022-11-12T13:16:01.692Z,55.00
2022-11-12T13:18:40.681Z,55.10
2022-11-12T13:21:07.361Z,55.20
2022-11-12T13:24:08.103Z,55.80
2022-11-12T13:26:44.223Z,55.20
2022-11-12T13:29:29.306Z,55.20
2022-11-12T13:32:14.652Z,55.40
2022-11-12T13:34:41.238Z,55.40
2022-11-12T13:37:12.528Z,55.60
2022-11-12T13:39:39.626Z,55.60
2022-11-12T13:42:30.867Z,55.30
2022-11-12T13:44:58.678Z,55.00
2022-11-12T13:47:28.750Z,54.70
2022-11-12T13:49:56.015Z,54.50
2022-11-12T13:52:22.594Z,54.50
2022-11-12T13:55:00.226Z,54.60
2022-11-12T13:57:27.901Z,54.80
2022-11-12T14:00:13.312Z,55.00
2022-11-12T14:02:41.633Z,55.10
2022-11-12T14:05:34.492Z,55.10
2022-11-12T14:08:07.276Z,55.20
2022-11-12T14:10:43.501Z,55.40
2022-11-12T14:13:24.890Z,55.50
2022-11-12T14:15:51.568Z,55.40
2022-11-12T14:18:24.984Z,55.30
2022-11-12T14:20:51.952Z,55.50
2022-11-12T14:23:24.508Z,55.50
2022-11-12T14:25:52.635Z,55.50
2022-11-12T14:28:37.315Z,55.80
2022-11-12T14:31:03.968Z,55.70
2022-11-12T14:33:31.306Z,55.70
2022-11-12T14:36:01.776Z,55.70
2022-11-12T14:38:38.234Z,55.40
2022-11-12T14:41:11.826Z,55.90
2022-11-12T14:43:41.278Z,53.50
2022-11-12T14:46:08.091Z,55.10
2022-11-12T14:48:58.041Z,55.80
2022-11-12T14:51:25.045Z,55.90
2022-11-12T14:53:55.259Z,55.90
2022-11-12T14:56:24.970Z,55.90
2022-11-12T14:58:51.681Z,55.80
2022-11-12T15:04:13.067Z,55.60
2022-11-12T15:06:39.802Z,55.30
2022-11-12T15:09:06.442Z,55.70
2022-11-12T15:11:38.088Z,55.70
2022-11-12T15:14:04.671Z,55.70
2022-11-12T15:16:32.581Z,55.70
2022-11-12T15:19:25.859Z,55.80
2022-11-12T15:21:53.103Z,55.70
2022-11-12T15:24:30.312Z,56.00
2022-11-12T15:26:57.339Z,56.10
2022-11-12T15:29:27.130Z,56.10
2022-11-12T15:31:55.381Z,55.90
2022-11-12T15:34:28.157Z,56.00
2022-11-12T15:36:55.662Z,55.90
2022-11-12T15:39:22.494Z,55.30
2022-11-12T15:41:55.286Z,55.50
2022-11-12T15:44:21.958Z,55.10
2022-11-12T15:46:48.661Z,55.00
2022-11-12T15:49:15.382Z,55.10
2022-11-12T15:51:42.055Z,55.20
2022-11-12T15:54:08.716Z,55.50
2022-11-12T15:56:35.342Z,55.40
2022-11-12T15:59:02.720Z,55.40
2022-11-12T16:01:29.461Z,55.40
2022-11-12T16:03:56.189Z,55.70
2022-11-12T16:06:22.818Z,55.60
2022-11-12T16:08:49.472Z,55.70
2022-11-12T16:11:45.579Z,55.80
2022-11-12T16:14:12.821Z,56.00
2022-11-12T16:16:40.037Z,56.00
2022-11-12T16:19:11.361Z,56.60
2022-11-12T16:21:38.032Z,56.00
2022-11-12T16:24:04.811Z,56.10
2022-11-12T16:26:31.390Z,56.00
2022-11-12T16:28:58.099Z,56.10
2022-11-12T16:31:24.863Z,56.10
2022-11-12T16:33:51.477Z,56.40
2022-11-12T16:36:18.218Z,56.30
2022-11-12T16:38:45.204Z,56.20
2022-11-12T16:41:12.527Z,56.30
2022-11-12T16:43:39.435Z,56.30
2022-11-12T16:46:07.043Z,56.50
2022-11-12T16:48:33.669Z,56.30
2022-11-12T16:51:00.771Z,56.30
2022-11-12T16:53:27.663Z,56.40
2022-11-12T16:55:54.444Z,56.50
2022-11-12T16:58:21.062Z,56.50
2022-11-12T17:00:47.817Z,56.40
2022-11-12T17:03:14.784Z,56.30
2022-11-12T17:05:41.459Z,56.90
2022-11-12T17:08:08.531Z,56.30
2022-11-12T17:10:35.156Z,56.30
2022-11-12T17:13:01.814Z,56.20
2022-11-12T17:15:28.379Z,55.90
2022-11-12T17:17:55.313Z,56.30
2022-11-12T17:20:21.930Z,56.50
2022-11-12T17:22:48.511Z,55.60
2022-11-12T17:25:18.267Z,55.50
2022-11-12T17:27:44.841Z,55.10
2022-11-12T17:30:12.095Z,56.50
2022-11-12T17:32:38.901Z,56.60
2022-11-12T17:35:05.964Z,56.70
2022-11-12T17:37:32.550Z,56.90
2022-11-12T17:39:59.347Z,56.60
2022-11-12T17:42:25.947Z,56.60
2022-11-12T17:44:52.524Z,56.40
2022-11-12T17:47:19.100Z,55.80
2022-11-12T17:49:45.720Z,55.80
2022-11-12T17:52:12.401Z,55.50
2022-11-12T17:54:38.997Z,55.40
2022-11-12T17:57:05.672Z,55.60
2022-11-12T17:59:32.290Z,55.50
2022-11-12T18:01:58.917Z,55.60
2022-11-12T18:04:29.827Z,55.70
2022-11-12T18:06:57.466Z,55.80
2022-11-12T18:09:24.172Z,56.10
2022-11-12T18:11:54.060Z,55.90
2022-11-12T18:14:22.630Z,56.00
2022-11-12T18:16:49.282Z,56.20
2022-11-12T18:19:15.953Z,56.10
2022-11-12T18:21:42.521Z,56.10
2022-11-12T18:24:13.076Z,56.20
2022-11-12T18:26:39.678Z,56.20
2022-11-12T18:29:07.381Z,56.10
2022-11-12T18:31:33.946Z,56.10
2022-11-12T18:34:00.636Z,56.10
2022-11-12T18:36:27.290Z,56.20
2022-11-12T18:38:54.664Z,56.20
2022-11-12T18:41:25.485Z,56.20
2022-11-12T18:43:52.576Z,56.20
2022-11-12T18:46:19.210Z,56.10
2022-11-12T18:48:46.226Z,56.20
2022-11-12T18:51:13.733Z,56.10
2022-11-12T18:53:40.405Z,56.10
2022-11-12T18:56:07.830Z,56.20
2022-11-12T18:58:35.571Z,56.20
2022-11-12T19:01:12.446Z,56.20
2022-11-12T19:03:39.045Z,56.30
2022-11-12T19:06:05.925Z,56.20
2022-11-12T19:08:32.704Z,56.30
2022-11-12T19:11:00.001Z,56.20
2022-11-12T19:13:27.079Z,56.20
2022-11-12T19:15:53.972Z,56.30
2022-11-12T19:18:20.547Z,56.10
2022-11-12T19:20:47.638Z,56.30
2022-11-12T19:23:14.337Z,56.30
2022-11-12T19:25:40.916Z,56.30
2022-11-12T19:28:07.480Z,56.30
2022-11-12T19:30:34.084Z,56.30
2022-11-12T19:33:00.653Z,56.50
2022-11-12T19:35:27.344Z,56.50
2022-11-12T19:37:53.954Z,56.40
2022-11-12T19:40:20.796Z,56.50
2022-11-12T19:42:48.079Z,56.30
2022-11-12T19:45:14.845Z,56.50
2022-11-12T19:47:41.473Z,56.40
2022-11-12T19:50:08.264Z,56.40
2022-11-12T19:52:34.871Z,56.50
2022-11-12T19:55:01.457Z,56.50
2022-11-12T19:57:29.080Z,56.40
2022-11-12T19:59:55.707Z,56.50
2022-11-12T20:02:22.351Z,56.50
2022-11-12T20:04:48.913Z,56.40
2022-11-12T20:07:15.657Z,56.50
2022-11-12T20:09:42.699Z,56.90
2022-11-12T20:12:09.284Z,56.60
2022-11-12T20:14:35.846Z,56.40
2022-11-12T20:17:02.424Z,56.40
2022-11-12T20:19:29.032Z,56.40
2022-11-12T20:21:55.943Z,56.20
2022-11-12T20:24:22.524Z,56.00
2022-11-12T20:26:49.170Z,55.70
2022-11-12T20:29:15.774Z,55.90
2022-11-12T20:31:42.334Z,55.50
2022-11-12T20:34:10.674Z,55.40
2022-11-12T20:36:37.713Z,55.40
2022-11-12T20:39:04.692Z,55.40
2022-11-12T20:41:34.141Z,55.50
2022-11-12T20:44:01.128Z,55.60
2022-11-12T20:46:27.758Z,55.70
2022-11-12T20:48:54.848Z,55.70
2022-11-12T20:51:26.011Z,55.90
2022-11-12T20:53:59.500Z,55.90
2022-11-12T20:56:27.741Z,55.90
2022-11-12T20:58:54.322Z,55.90
2022-11-12T21:01:21.660Z,56.00
2022-11-12T21:03:48.452Z,56.00
2022-11-12T21:06:16.094Z,56.00
2022-11-12T21:08:42.764Z,56.10
2022-11-12T21:11:10.317Z,56.00
2022-11-12T21:13:37.031Z,56.10
2022-11-12T21:16:03.805Z,56.00
2022-11-12T21:18:30.735Z,56.10
2022-11-12T21:21:01.036Z,56.00
2022-11-12T21:23:31.130Z,56.10
2022-11-12T21:26:07.313Z,56.20
2022-11-12T21:28:38.350Z,56.00
2022-11-12T21:31:05.762Z,56.20
2022-11-12T21:33:32.382Z,56.10
2022-11-12T21:35:59.574Z,56.20
2022-11-12T21:38:27.053Z,56.20
2022-11-12T21:41:10.016Z,56.20
2022-11-12T21:43:40.229Z,56.20
2022-11-12T21:46:07.461Z,56.30
2022-11-12T21:48:34.490Z,56.20
2022-11-12T21:51:07.984Z,56.20
2022-11-12T21:53:34.571Z,56.20
2022-11-12T21:56:02.133Z,56.20
2022-11-12T21:58:29.528Z,56.20
2022-11-12T22:00:56.250Z,56.30
2022-11-12T22:03:22.840Z,56.20
2022-11-12T22:05:49.493Z,56.10
2022-11-12T22:08:16.085Z,56.20
2022-11-12T22:10:42.741Z,56.20
2022-11-12T22:15:55.996Z,56.20
2022-11-12T22:18:22.817Z,56.20
2022-11-12T22:20:59.004Z,56.20
2022-11-12T22:23:25.681Z,56.20
2022-11-12T22:25:52.749Z,56.20
2022-11-12T22:28:19.444Z,56.10
2022-11-12T22:30:46.092Z,56.20
2022-11-12T22:33:12.691Z,56.20
2022-11-12T22:35:39.328Z,56.20
2022-11-12T22:38:05.959Z,56.20
2022-11-12T22:40:32.565Z,56.30
2022-11-12T22:42:59.141Z,56.30
2022-11-12T22:45:25.720Z,56.10
2022-11-12T22:47:52.286Z,56.20
2022-11-12T22:50:18.883Z,56.10
2022-11-12T22:52:49.997Z,56.40
2022-11-12T22:55:16.953Z,56.20
2022-11-12T22:57:43.518Z,56.20
2022-11-12T23:00:10.461Z,56.20
2022-11-12T23:02:37.112Z,56.20
2022-11-12T23:05:03.803Z,56.10
2022-11-12T23:07:30.380Z,56.20
2022-11-12T23:09:57.382Z,56.20
2022-11-12T23:12:23.944Z,56.20
2022-11-12T23:14:50.529Z,56.10
2022-11-12T23:17:17.104Z,56.10
2022-11-12T23:19:43.799Z,56.20
2022-11-12T23:22:10.393Z,56.20
2022-11-12T23:24:36.955Z,56.20
2022-11-12T23:27:03.575Z,56.10
2022-11-12T23:29:30.208Z,56.10
2022-11-12T23:31:56.887Z,56.10
2022-11-12T23:34:23.442Z,56.10
2022-11-12T23:36:50.044Z,56.10
2022-11-12T23:39:16.610Z,56.10
2022-11-12T23:41:43.189Z,56.10
2022-11-12T23:44:09.839Z,56.10
2022-11-12T23:46:36.393Z,56.10
2022-11-12T23:49:02.982Z,56.10
2022-11-12T23:51:30.761Z,56.00
2022-11-12T23:53:57.324Z,56.10
2022-11-12T23:56:23.970Z,56.00
2022-11-12T23:58:52.755Z,56.00
